sensor_id;sensor_type;location;lat;lon;timestamp;P1;durP1;ratioP1;P2;durP2;ratioP2
19219;SDS011;9744;49.364;7.484;2022-07-17T00:00:26;0.95;;;0.75;;
19219;SDS011;9744;49.364;7.484;2022-07-17T00:02:53;1.15;;;0.82;;
19219;SDS011;9744;49.364;7.484;2022-07-17T00:05:21;1.45;;;0.88;;
19219;SDS011;9744;49.364;7.484;2022-07-17T00:07:48;1.20;;;0.70;;
19219;SDS011;9744;49.364;7.484;2022-07-17T00:10:16;2.30;;;1.17;;
19219;SDS011;9744;49.364;7.484;2022-07-17T00:12:43;1.70;;;0.65;;
19219;SDS011;9744;49.364;7.484;2022-07-17T00:15:12;0.93;;;0.65;;
19219;SDS011;9744;49.364;7.484;2022-07-17T00:17:40;1.58;;;0.77;;
19219;SDS011;9744;49.364;7.484;2022-07-17T00:20:08;1.58;;;0.80;;
19219;SDS011;9744;49.364;7.484;2022-07-17T00:22:36;2.22;;;0.70;;
19219;SDS011;9744;49.364;7.484;2022-07-17T00:25:04;2.42;;;1.02;;
19219;SDS011;9744;49.364;7.484;2022-07-17T00:27:32;2.38;;;0.90;;
19219;SDS011;9744;49.364;7.484;2022-07-17T00:29:59;3.13;;;0.60;;
19219;SDS011;9744;49.364;7.484;2022-07-17T00:32:28;3.40;;;1.00;;
19219;SDS011;9744;49.364;7.484;2022-07-17T00:34:55;1.42;;;0.90;;
19219;SDS011;9744;49.364;7.484;2022-07-17T00:37:23;4.10;;;0.80;;
19219;SDS011;9744;49.364;7.484;2022-07-17T00:39:50;2.45;;;0.95;;
19219;SDS011;9744;49.364;7.484;2022-07-17T00:42:17;1.42;;;0.70;;
19219;SDS011;9744;49.364;7.484;2022-07-17T00:44:44;1.95;;;0.70;;
19219;SDS011;9744;49.364;7.484;2022-07-17T00:47:12;0.80;;;0.60;;
19219;SDS011;9744;49.364;7.484;2022-07-17T00:49:42;1.85;;;0.82;;
19219;SDS011;9744;49.364;7.484;2022-07-17T00:52:09;5.35;;;1.00;;
19219;SDS011;9744;49.364;7.484;2022-07-17T00:54:38;2.45;;;0.68;;
19219;SDS011;9744;49.364;7.484;2022-07-17T00:57:07;4.43;;;0.98;;
19219;SDS011;9744;49.364;7.484;2022-07-17T00:59:35;1.85;;;0.73;;
19219;SDS011;9744;49.364;7.484;2022-07-17T01:02:03;2.85;;;0.70;;
19219;SDS011;9744;49.364;7.484;2022-07-17T01:04:32;1.48;;;0.73;;
19219;SDS011;9744;49.364;7.484;2022-07-17T01:07:01;3.33;;;0.50;;
19219;SDS011;9744;49.364;7.484;2022-07-17T01:09:30;2.13;;;0.80;;
19219;SDS011;9744;49.364;7.484;2022-07-17T01:11:57;4.00;;;0.90;;
19219;SDS011;9744;49.364;7.484;2022-07-17T01:14:25;2.03;;;0.80;;
19219;SDS011;9744;49.364;7.484;2022-07-17T01:16:53;1.98;;;0.70;;
19219;SDS011;9744;49.364;7.484;2022-07-17T01:19:21;1.52;;;0.90;;
19219;SDS011;9744;49.364;7.484;2022-07-17T01:21:50;3.42;;;0.68;;
19219;SDS011;9744;49.364;7.484;2022-07-17T01:24:17;1.40;;;0.80;;
19219;SDS011;9744;49.364;7.484;2022-07-17T01:26:46;5.35;;;1.02;;
19219;SDS011;9744;49.364;7.484;2022-07-17T01:29:14;1.63;;;0.90;;
19219;SDS011;9744;49.364;7.484;2022-07-17T01:31:43;1.75;;;0.85;;
19219;SDS011;9744;49.364;7.484;2022-07-17T01:34:10;2.50;;;0.80;;
19219;SDS011;9744;49.364;7.484;2022-07-17T01:36:39;3.25;;;1.00;;
19219;SDS011;9744;49.364;7.484;2022-07-17T01:39:08;1.63;;;0.55;;
19219;SDS011;9744;49.364;7.484;2022-07-17T01:41:35;0.98;;;0.80;;
19219;SDS011;9744;49.364;7.484;2022-07-17T01:44:03;1.60;;;0.60;;
19219;SDS011;9744;49.364;7.484;2022-07-17T01:46:31;2.67;;;0.80;;
19219;SDS011;9744;49.364;7.484;2022-07-17T01:48:59;0.93;;;0.60;;
19219;SDS011;9744;49.364;7.484;2022-07-17T01:51:27;1.63;;;0.70;;
19219;SDS011;9744;49.364;7.484;2022-07-17T01:53:55;0.73;;;0.70;;
19219;SDS011;9744;49.364;7.484;2022-07-17T01:56:23;2.22;;;0.60;;
19219;SDS011;9744;49.364;7.484;2022-07-17T01:58:51;1.80;;;0.95;;
19219;SDS011;9744;49.364;7.484;2022-07-17T02:01:18;1.30;;;0.80;;
19219;SDS011;9744;49.364;7.484;2022-07-17T02:03:45;2.05;;;0.63;;
19219;SDS011;9744;49.364;7.484;2022-07-17T02:06:12;3.55;;;0.90;;
19219;SDS011;9744;49.364;7.484;2022-07-17T02:08:40;3.75;;;1.00;;
19219;SDS011;9744;49.364;7.484;2022-07-17T02:11:07;3.45;;;1.00;;
19219;SDS011;9744;49.364;7.484;2022-07-17T02:13:36;1.42;;;0.70;;
19219;SDS011;9744;49.364;7.484;2022-07-17T02:16:03;2.80;;;1.00;;
19219;SDS011;9744;49.364;7.484;2022-07-17T02:18:30;1.85;;;0.90;;
19219;SDS011;9744;49.364;7.484;2022-07-17T02:20:58;0.77;;;0.77;;
19219;SDS011;9744;49.364;7.484;2022-07-17T02:23:26;3.42;;;0.90;;
19219;SDS011;9744;49.364;7.484;2022-07-17T02:25:53;1.63;;;0.70;;
19219;SDS011;9744;49.364;7.484;2022-07-17T02:28:22;1.15;;;0.65;;
19219;SDS011;9744;49.364;7.484;2022-07-17T02:30:50;3.63;;;1.08;;
19219;SDS011;9744;49.364;7.484;2022-07-17T02:33:18;4.78;;;0.88;;
19219;SDS011;9744;49.364;7.484;2022-07-17T02:35:45;0.93;;;0.80;;
19219;SDS011;9744;49.364;7.484;2022-07-17T02:38:12;5.30;;;0.80;;
19219;SDS011;9744;49.364;7.484;2022-07-17T02:40:39;5.35;;;0.93;;
19219;SDS011;9744;49.364;7.484;2022-07-17T02:43:07;0.95;;;0.65;;
19219;SDS011;9744;49.364;7.484;2022-07-17T02:45:35;3.03;;;0.80;;
19219;SDS011;9744;49.364;7.484;2022-07-17T02:48:03;1.20;;;0.70;;
19219;SDS011;9744;49.364;7.484;2022-07-17T02:50:31;3.25;;;0.80;;
19219;SDS011;9744;49.364;7.484;2022-07-17T02:52:58;3.30;;;1.05;;
19219;SDS011;9744;49.364;7.484;2022-07-17T02:55:25;1.30;;;0.85;;
19219;SDS011;9744;49.364;7.484;2022-07-17T02:57:53;2.70;;;0.85;;
19219;SDS011;9744;49.364;7.484;2022-07-17T03:00:20;10.38;;;1.10;;
19219;SDS011;9744;49.364;7.484;2022-07-17T03:02:47;2.35;;;0.90;;
19219;SDS011;9744;49.364;7.484;2022-07-17T03:05:16;2.33;;;0.80;;
19219;SDS011;9744;49.364;7.484;2022-07-17T03:07:43;2.35;;;0.98;;
19219;SDS011;9744;49.364;7.484;2022-07-17T03:10:11;1.60;;;0.80;;
19219;SDS011;9744;49.364;7.484;2022-07-17T03:12:38;1.02;;;0.80;;
19219;SDS011;9744;49.364;7.484;2022-07-17T03:15:06;1.13;;;0.82;;
19219;SDS011;9744;49.364;7.484;2022-07-17T03:17:34;4.00;;;0.65;;
19219;SDS011;9744;49.364;7.484;2022-07-17T03:20:02;1.92;;;0.80;;
19219;SDS011;9744;49.364;7.484;2022-07-17T03:22:31;5.68;;;0.95;;
19219;SDS011;9744;49.364;7.484;2022-07-17T03:24:58;3.55;;;1.10;;
19219;SDS011;9744;49.364;7.484;2022-07-17T03:27:25;2.90;;;0.98;;
19219;SDS011;9744;49.364;7.484;2022-07-17T03:29:53;2.67;;;1.02;;
19219;SDS011;9744;49.364;7.484;2022-07-17T03:32:20;1.67;;;0.93;;
19219;SDS011;9744;49.364;7.484;2022-07-17T03:34:48;2.17;;;0.80;;
19219;SDS011;9744;49.364;7.484;2022-07-17T03:37:16;4.85;;;1.20;;
19219;SDS011;9744;49.364;7.484;2022-07-17T03:39:44;5.68;;;1.13;;
19219;SDS011;9744;49.364;7.484;2022-07-17T03:42:11;2.45;;;1.15;;
19219;SDS011;9744;49.364;7.484;2022-07-17T03:44:39;2.58;;;0.80;;
19219;SDS011;9744;49.364;7.484;2022-07-17T03:47:06;2.17;;;0.80;;
19219;SDS011;9744;49.364;7.484;2022-07-17T03:49:35;2.28;;;0.80;;
19219;SDS011;9744;49.364;7.484;2022-07-17T03:52:02;2.15;;;0.80;;
19219;SDS011;9744;49.364;7.484;2022-07-17T03:54:30;4.18;;;1.05;;
19219;SDS011;9744;49.364;7.484;2022-07-17T03:56:58;1.35;;;0.80;;
19219;SDS011;9744;49.364;7.484;2022-07-17T03:59:25;8.95;;;1.13;;
19219;SDS011;9744;49.364;7.484;2022-07-17T04:01:53;0.95;;;0.60;;
19219;SDS011;9744;49.364;7.484;2022-07-17T04:04:20;1.88;;;0.73;;
19219;SDS011;9744;49.364;7.484;2022-07-17T04:06:47;0.85;;;0.57;;
19219;SDS011;9744;49.364;7.484;2022-07-17T04:09:14;1.02;;;0.65;;
19219;SDS011;9744;49.364;7.484;2022-07-17T04:11:42;2.58;;;0.82;;
19219;SDS011;9744;49.364;7.484;2022-07-17T04:14:10;2.65;;;0.80;;
19219;SDS011;9744;49.364;7.484;2022-07-17T04:16:37;1.15;;;0.60;;
19219;SDS011;9744;49.364;7.484;2022-07-17T04:19:05;1.67;;;0.70;;
19219;SDS011;9744;49.364;7.484;2022-07-17T04:21:32;2.28;;;1.17;;
19219;SDS011;9744;49.364;7.484;2022-07-17T04:23:59;4.43;;;0.70;;
19219;SDS011;9744;49.364;7.484;2022-07-17T04:26:26;3.30;;;0.77;;
19219;SDS011;9744;49.364;7.484;2022-07-17T04:28:54;1.60;;;0.70;;
19219;SDS011;9744;49.364;7.484;2022-07-17T04:31:22;3.05;;;0.80;;
19219;SDS011;9744;49.364;7.484;2022-07-17T04:33:49;1.63;;;0.88;;
19219;SDS011;9744;49.364;7.484;2022-07-17T04:36:19;1.58;;;0.88;;
19219;SDS011;9744;49.364;7.484;2022-07-17T04:38:46;4.40;;;0.98;;
19219;SDS011;9744;49.364;7.484;2022-07-17T04:41:13;1.33;;;0.68;;
19219;SDS011;9744;49.364;7.484;2022-07-17T04:43:40;1.55;;;1.13;;
19219;SDS011;9744;49.364;7.484;2022-07-17T04:46:07;5.43;;;3.40;;
19219;SDS011;9744;49.364;7.484;2022-07-17T04:48:36;8.05;;;5.43;;
19219;SDS011;9744;49.364;7.484;2022-07-17T04:51:03;7.95;;;2.50;;
19219;SDS011;9744;49.364;7.484;2022-07-17T04:53:30;6.93;;;4.30;;
19219;SDS011;9744;49.364;7.484;2022-07-17T04:55:59;7.40;;;4.22;;
19219;SDS011;9744;49.364;7.484;2022-07-17T04:58:26;4.53;;;2.72;;
19219;SDS011;9744;49.364;7.484;2022-07-17T05:00:53;6.55;;;2.17;;
19219;SDS011;9744;49.364;7.484;2022-07-17T05:03:20;7.07;;;2.72;;
19219;SDS011;9744;49.364;7.484;2022-07-17T05:05:49;5.15;;;2.10;;
19219;SDS011;9744;49.364;7.484;2022-07-17T05:08:16;7.75;;;1.63;;
19219;SDS011;9744;49.364;7.484;2022-07-17T05:10:44;2.85;;;1.83;;
19219;SDS011;9744;49.364;7.484;2022-07-17T05:13:11;4.28;;;1.52;;
19219;SDS011;9744;49.364;7.484;2022-07-17T05:15:39;3.38;;;1.50;;
19219;SDS011;9744;49.364;7.484;2022-07-17T05:18:06;4.10;;;1.48;;
19219;SDS011;9744;49.364;7.484;2022-07-17T05:20:33;5.45;;;1.40;;
19219;SDS011;9744;49.364;7.484;2022-07-17T05:23:03;1.85;;;1.30;;
19219;SDS011;9744;49.364;7.484;2022-07-17T05:25:30;2.20;;;1.35;;
19219;SDS011;9744;49.364;7.484;2022-07-17T05:27:58;1.98;;;1.02;;
19219;SDS011;9744;49.364;7.484;2022-07-17T05:30:27;2.22;;;0.98;;
19219;SDS011;9744;49.364;7.484;2022-07-17T05:32:54;2.53;;;0.90;;
19219;SDS011;9744;49.364;7.484;2022-07-17T05:35:22;0.80;;;0.68;;
19219;SDS011;9744;49.364;7.484;2022-07-17T05:37:49;1.65;;;0.88;;
19219;SDS011;9744;49.364;7.484;2022-07-17T05:40:17;4.00;;;1.00;;
19219;SDS011;9744;49.364;7.484;2022-07-17T05:42:45;2.63;;;0.70;;
19219;SDS011;9744;49.364;7.484;2022-07-17T05:45:12;1.08;;;0.80;;
19219;SDS011;9744;49.364;7.484;2022-07-17T05:47:39;2.65;;;0.88;;
19219;SDS011;9744;49.364;7.484;2022-07-17T05:50:06;1.58;;;0.60;;
19219;SDS011;9744;49.364;7.484;2022-07-17T05:52:34;4.50;;;0.90;;
19219;SDS011;9744;49.364;7.484;2022-07-17T05:55:01;2.25;;;0.60;;
19219;SDS011;9744;49.364;7.484;2022-07-17T05:57:30;1.60;;;0.70;;
19219;SDS011;9744;49.364;7.484;2022-07-17T05:59:57;7.63;;;1.70;;
19219;SDS011;9744;49.364;7.484;2022-07-17T06:02:24;4.03;;;1.75;;
19219;SDS011;9744;49.364;7.484;2022-07-17T06:04:51;6.20;;;1.92;;
19219;SDS011;9744;49.364;7.484;2022-07-17T06:07:18;7.13;;;2.80;;
19219;SDS011;9744;49.364;7.484;2022-07-17T06:09:46;8.50;;;4.05;;
19219;SDS011;9744;49.364;7.484;2022-07-17T06:12:13;6.35;;;3.22;;
19219;SDS011;9744;49.364;7.484;2022-07-17T06:14:41;7.35;;;4.05;;
19219;SDS011;9744;49.364;7.484;2022-07-17T06:17:09;7.88;;;4.93;;
19219;SDS011;9744;49.364;7.484;2022-07-17T06:19:36;11.75;;;5.75;;
19219;SDS011;9744;49.364;7.484;2022-07-17T06:22:03;9.23;;;5.78;;
19219;SDS011;9744;49.364;7.484;2022-07-17T06:24:30;9.13;;;2.92;;
19219;SDS011;9744;49.364;7.484;2022-07-17T06:26:57;7.28;;;3.40;;
19219;SDS011;9744;49.364;7.484;2022-07-17T06:29:25;8.43;;;4.80;;
19219;SDS011;9744;49.364;7.484;2022-07-17T06:31:54;6.55;;;2.85;;
19219;SDS011;9744;49.364;7.484;2022-07-17T06:34:21;7.35;;;2.67;;
19219;SDS011;9744;49.364;7.484;2022-07-17T06:36:48;3.88;;;1.90;;
19219;SDS011;9744;49.364;7.484;2022-07-17T06:39:15;3.15;;;1.45;;
19219;SDS011;9744;49.364;7.484;2022-07-17T06:41:43;2.90;;;1.35;;
19219;SDS011;9744;49.364;7.484;2022-07-17T06:44:10;4.72;;;1.13;;
19219;SDS011;9744;49.364;7.484;2022-07-17T06:46:37;2.35;;;1.20;;
19219;SDS011;9744;49.364;7.484;2022-07-17T06:49:06;3.75;;;0.82;;
19219;SDS011;9744;49.364;7.484;2022-07-17T06:51:33;3.80;;;1.15;;
19219;SDS011;9744;49.364;7.484;2022-07-17T06:54:00;4.55;;;0.93;;
19219;SDS011;9744;49.364;7.484;2022-07-17T06:56:27;2.33;;;0.80;;
19219;SDS011;9744;49.364;7.484;2022-07-17T06:58:55;2.25;;;0.70;;
19219;SDS011;9744;49.364;7.484;2022-07-17T07:01:22;2.80;;;0.77;;
19219;SDS011;9744;49.364;7.484;2022-07-17T07:03:49;3.72;;;0.50;;
19219;SDS011;9744;49.364;7.484;2022-07-17T07:06:18;5.05;;;0.70;;
19219;SDS011;9744;49.364;7.484;2022-07-17T07:08:45;2.38;;;1.38;;
19219;SDS011;9744;49.364;7.484;2022-07-17T07:11:12;4.82;;;1.90;;
19219;SDS011;9744;49.364;7.484;2022-07-17T07:13:39;4.45;;;2.88;;
19219;SDS011;9744;49.364;7.484;2022-07-17T07:16:07;5.43;;;2.28;;
19219;SDS011;9744;49.364;7.484;2022-07-17T07:18:34;8.38;;;3.22;;
19219;SDS011;9744;49.364;7.484;2022-07-17T07:21:01;4.65;;;2.80;;
19219;SDS011;9744;49.364;7.484;2022-07-17T07:23:30;8.77;;;2.88;;
19219;SDS011;9744;49.364;7.484;2022-07-17T07:25:57;15.85;;;4.50;;
19219;SDS011;9744;49.364;7.484;2022-07-17T07:28:25;24.55;;;7.32;;
19219;SDS011;9744;49.364;7.484;2022-07-17T07:30:52;21.15;;;5.50;;
19219;SDS011;9744;49.364;7.484;2022-07-17T07:33:19;18.17;;;5.90;;
19219;SDS011;9744;49.364;7.484;2022-07-17T07:35:46;18.90;;;5.50;;
19219;SDS011;9744;49.364;7.484;2022-07-17T07:38:15;12.10;;;4.90;;
19219;SDS011;9744;49.364;7.484;2022-07-17T07:40:43;18.73;;;6.05;;
19219;SDS011;9744;49.364;7.484;2022-07-17T07:43:10;13.30;;;4.57;;
19219;SDS011;9744;49.364;7.484;2022-07-17T07:45:38;9.32;;;3.90;;
19219;SDS011;9744;49.364;7.484;2022-07-17T07:48:05;9.82;;;4.78;;
19219;SDS011;9744;49.364;7.484;2022-07-17T07:50:32;7.03;;;3.60;;
19219;SDS011;9744;49.364;7.484;2022-07-17T07:52:59;7.78;;;2.97;;
19219;SDS011;9744;49.364;7.484;2022-07-17T07:55:27;3.08;;;2.08;;
19219;SDS011;9744;49.364;7.484;2022-07-17T07:58:02;3.55;;;1.40;;
19219;SDS011;9744;49.364;7.484;2022-07-17T08:00:30;4.93;;;1.83;;
19219;SDS011;9744;49.364;7.484;2022-07-17T08:02:58;2.95;;;1.25;;
19219;SDS011;9744;49.364;7.484;2022-07-17T08:05:25;5.53;;;1.20;;
19219;SDS011;9744;49.364;7.484;2022-07-17T08:07:53;2.75;;;1.00;;
19219;SDS011;9744;49.364;7.484;2022-07-17T08:10:20;3.55;;;1.20;;
19219;SDS011;9744;49.364;7.484;2022-07-17T08:12:47;3.15;;;0.88;;
19219;SDS011;9744;49.364;7.484;2022-07-17T08:15:17;1.50;;;0.80;;
19219;SDS011;9744;49.364;7.484;2022-07-17T08:17:45;4.03;;;1.95;;
19219;SDS011;9744;49.364;7.484;2022-07-17T08:20:13;6.55;;;1.52;;
19219;SDS011;9744;49.364;7.484;2022-07-17T08:22:41;6.55;;;1.70;;
19219;SDS011;9744;49.364;7.484;2022-07-17T08:25:09;4.07;;;1.48;;
19219;SDS011;9744;49.364;7.484;2022-07-17T08:27:37;4.50;;;1.80;;
19219;SDS011;9744;49.364;7.484;2022-07-17T08:30:06;3.00;;;1.83;;
19219;SDS011;9744;49.364;7.484;2022-07-17T08:32:37;3.45;;;1.67;;
19219;SDS011;9744;49.364;7.484;2022-07-17T08:35:04;10.90;;;1.63;;
19219;SDS011;9744;49.364;7.484;2022-07-17T08:37:41;3.80;;;1.02;;
19219;SDS011;9744;49.364;7.484;2022-07-17T08:40:14;4.00;;;1.52;;
19219;SDS011;9744;49.364;7.484;2022-07-17T08:42:43;6.10;;;4.15;;
19219;SDS011;9744;49.364;7.484;2022-07-17T08:45:10;6.85;;;2.30;;
19219;SDS011;9744;49.364;7.484;2022-07-17T08:47:39;6.65;;;3.05;;
19219;SDS011;9744;49.364;7.484;2022-07-17T08:50:08;4.00;;;2.35;;
19219;SDS011;9744;49.364;7.484;2022-07-17T08:52:36;3.58;;;2.30;;
19219;SDS011;9744;49.364;7.484;2022-07-17T08:55:04;4.82;;;2.72;;
19219;SDS011;9744;49.364;7.484;2022-07-17T08:57:36;2.90;;;1.63;;
19219;SDS011;9744;49.364;7.484;2022-07-17T09:00:05;3.42;;;1.95;;
19219;SDS011;9744;49.364;7.484;2022-07-17T09:02:35;5.53;;;2.90;;
19219;SDS011;9744;49.364;7.484;2022-07-17T09:05:05;1.13;;;0.95;;
19219;SDS011;9744;49.364;7.484;2022-07-17T09:07:34;3.28;;;1.33;;
19219;SDS011;9744;49.364;7.484;2022-07-17T09:10:12;2.17;;;1.85;;
19219;SDS011;9744;49.364;7.484;2022-07-17T09:12:40;5.50;;;1.45;;
19219;SDS011;9744;49.364;7.484;2022-07-17T09:15:13;2.38;;;1.33;;
19219;SDS011;9744;49.364;7.484;2022-07-17T09:17:49;1.98;;;1.17;;
19219;SDS011;9744;49.364;7.484;2022-07-17T09:20:18;3.63;;;1.00;;
19219;SDS011;9744;49.364;7.484;2022-07-17T09:22:54;3.35;;;0.70;;
19219;SDS011;9744;49.364;7.484;2022-07-17T09:25:31;4.85;;;0.93;;
19219;SDS011;9744;49.364;7.484;2022-07-17T09:28:02;1.70;;;0.82;;
19219;SDS011;9744;49.364;7.484;2022-07-17T09:30:31;5.70;;;0.70;;
19219;SDS011;9744;49.364;7.484;2022-07-17T09:32:58;2.53;;;0.65;;
19219;SDS011;9744;49.364;7.484;2022-07-17T09:35:27;2.63;;;0.50;;
19219;SDS011;9744;49.364;7.484;2022-07-17T09:37:54;0.88;;;0.70;;
19219;SDS011;9744;49.364;7.484;2022-07-17T09:40:22;4.20;;;0.70;;
19219;SDS011;9744;49.364;7.484;2022-07-17T09:43:06;5.95;;;0.90;;
19219;SDS011;9744;49.364;7.484;2022-07-17T09:45:34;3.55;;;0.52;;
19219;SDS011;9744;49.364;7.484;2022-07-17T09:48:03;3.63;;;0.52;;
19219;SDS011;9744;49.364;7.484;2022-07-17T09:50:32;2.10;;;0.50;;
19219;SDS011;9744;49.364;7.484;2022-07-17T09:53:01;0.40;;;0.35;;
19219;SDS011;9744;49.364;7.484;2022-07-17T09:55:30;3.42;;;0.77;;
19219;SDS011;9744;49.364;7.484;2022-07-17T09:57:59;3.50;;;0.70;;
19219;SDS011;9744;49.364;7.484;2022-07-17T10:00:28;1.33;;;0.40;;
19219;SDS011;9744;49.364;7.484;2022-07-17T10:02:55;1.10;;;0.60;;
19219;SDS011;9744;49.364;7.484;2022-07-17T10:05:24;1.38;;;0.40;;
19219;SDS011;9744;49.364;7.484;2022-07-17T10:07:53;1.98;;;0.70;;
19219;SDS011;9744;49.364;7.484;2022-07-17T10:10:21;2.88;;;0.43;;
19219;SDS011;9744;49.364;7.484;2022-07-17T10:12:49;1.65;;;0.40;;
19219;SDS011;9744;49.364;7.484;2022-07-17T10:15:17;1.63;;;0.45;;
19219;SDS011;9744;49.364;7.484;2022-07-17T10:17:49;0.55;;;0.40;;
19219;SDS011;9744;49.364;7.484;2022-07-17T10:20:23;2.35;;;0.70;;
19219;SDS011;9744;49.364;7.484;2022-07-17T10:22:51;2.03;;;0.50;;
19219;SDS011;9744;49.364;7.484;2022-07-17T10:25:20;1.63;;;0.50;;
19219;SDS011;9744;49.364;7.484;2022-07-17T10:27:48;1.48;;;0.60;;
19219;SDS011;9744;49.364;7.484;2022-07-17T10:30:24;0.77;;;0.47;;
19219;SDS011;9744;49.364;7.484;2022-07-17T10:32:55;0.90;;;0.57;;
19219;SDS011;9744;49.364;7.484;2022-07-17T10:35:24;0.75;;;0.43;;
19219;SDS011;9744;49.364;7.484;2022-07-17T10:37:51;2.03;;;0.50;;
19219;SDS011;9744;49.364;7.484;2022-07-17T10:40:24;2.25;;;0.40;;
19219;SDS011;9744;49.364;7.484;2022-07-17T10:42:57;2.90;;;0.60;;
19219;SDS011;9744;49.364;7.484;2022-07-17T10:45:27;9.43;;;1.65;;
19219;SDS011;9744;49.364;7.484;2022-07-17T10:48:00;6.13;;;1.52;;
19219;SDS011;9744;49.364;7.484;2022-07-17T10:50:30;1.85;;;1.35;;
19219;SDS011;9744;49.364;7.484;2022-07-17T10:53:03;1.45;;;0.98;;
19219;SDS011;9744;49.364;7.484;2022-07-17T10:55:32;5.25;;;1.33;;
19219;SDS011;9744;49.364;7.484;2022-07-17T10:58:00;2.47;;;1.30;;
19219;SDS011;9744;49.364;7.484;2022-07-17T11:00:28;1.42;;;0.52;;
19219;SDS011;9744;49.364;7.484;2022-07-17T11:02:55;3.92;;;1.20;;
19219;SDS011;9744;49.364;7.484;2022-07-17T11:05:23;2.08;;;1.27;;
19219;SDS011;9744;49.364;7.484;2022-07-17T11:07:51;1.30;;;1.10;;
19219;SDS011;9744;49.364;7.484;2022-07-17T11:10:21;1.90;;;1.08;;
19219;SDS011;9744;49.364;7.484;2022-07-17T11:12:51;3.33;;;0.88;;
19219;SDS011;9744;49.364;7.484;2022-07-17T11:15:20;1.90;;;0.82;;
19219;SDS011;9744;49.364;7.484;2022-07-17T11:17:48;3.13;;;0.50;;
19219;SDS011;9744;49.364;7.484;2022-07-17T11:20:16;0.77;;;0.60;;
19219;SDS011;9744;49.364;7.484;2022-07-17T11:22:44;0.82;;;0.47;;
19219;SDS011;9744;49.364;7.484;2022-07-17T11:25:11;1.98;;;0.68;;
19219;SDS011;9744;49.364;7.484;2022-07-17T11:27:40;0.93;;;0.50;;
19219;SDS011;9744;49.364;7.484;2022-07-17T11:30:11;1.05;;;0.65;;
19219;SDS011;9744;49.364;7.484;2022-07-17T11:32:41;6.45;;;0.80;;
19219;SDS011;9744;49.364;7.484;2022-07-17T11:35:17;1.40;;;0.75;;
19219;SDS011;9744;49.364;7.484;2022-07-17T11:37:47;4.32;;;0.60;;
19219;SDS011;9744;49.364;7.484;2022-07-17T11:40:16;1.73;;;0.63;;
19219;SDS011;9744;49.364;7.484;2022-07-17T11:42:44;0.35;;;0.30;;
19219;SDS011;9744;49.364;7.484;2022-07-17T11:45:12;1.20;;;0.50;;
19219;SDS011;9744;49.364;7.484;2022-07-17T11:47:40;3.05;;;0.68;;
19219;SDS011;9744;49.364;7.484;2022-07-17T11:50:10;1.02;;;0.50;;
19219;SDS011;9744;49.364;7.484;2022-07-17T11:52:39;2.03;;;0.52;;
19219;SDS011;9744;49.364;7.484;2022-07-17T11:55:08;3.78;;;1.45;;
19219;SDS011;9744;49.364;7.484;2022-07-17T11:57:41;3.30;;;1.50;;
19219;SDS011;9744;49.364;7.484;2022-07-17T12:00:13;1.73;;;1.00;;
19219;SDS011;9744;49.364;7.484;2022-07-17T12:02:41;1.38;;;0.70;;
19219;SDS011;9744;49.364;7.484;2022-07-17T12:05:09;3.20;;;0.80;;
19219;SDS011;9744;49.364;7.484;2022-07-17T12:07:41;0.98;;;0.80;;
19219;SDS011;9744;49.364;7.484;2022-07-17T12:10:15;1.10;;;0.80;;
19219;SDS011;9744;49.364;7.484;2022-07-17T12:12:54;1.15;;;0.60;;
19219;SDS011;9744;49.364;7.484;2022-07-17T12:15:34;2.25;;;0.50;;
19219;SDS011;9744;49.364;7.484;2022-07-17T12:18:03;1.42;;;1.00;;
19219;SDS011;9744;49.364;7.484;2022-07-17T12:20:39;1.75;;;0.93;;
19219;SDS011;9744;49.364;7.484;2022-07-17T12:23:08;1.10;;;0.70;;
19219;SDS011;9744;49.364;7.484;2022-07-17T12:25:36;1.85;;;0.70;;
19219;SDS011;9744;49.364;7.484;2022-07-17T12:28:03;3.80;;;0.63;;
19219;SDS011;9744;49.364;7.484;2022-07-17T12:30:30;1.30;;;0.43;;
19219;SDS011;9744;49.364;7.484;2022-07-17T12:32:59;3.30;;;0.50;;
19219;SDS011;9744;49.364;7.484;2022-07-17T12:35:26;2.85;;;0.60;;
19219;SDS011;9744;49.364;7.484;2022-07-17T12:37:54;1.70;;;0.52;;
19219;SDS011;9744;49.364;7.484;2022-07-17T12:40:21;2.10;;;0.70;;
19219;SDS011;9744;49.364;7.484;2022-07-17T12:42:48;0.70;;;0.68;;
19219;SDS011;9744;49.364;7.484;2022-07-17T12:45:15;4.03;;;0.60;;
19219;SDS011;9744;49.364;7.484;2022-07-17T12:47:42;0.68;;;0.43;;
19219;SDS011;9744;49.364;7.484;2022-07-17T12:50:11;1.23;;;0.45;;
19219;SDS011;9744;49.364;7.484;2022-07-17T12:52:38;1.73;;;0.50;;
19219;SDS011;9744;49.364;7.484;2022-07-17T12:55:05;2.90;;;0.68;;
19219;SDS011;9744;49.364;7.484;2022-07-17T12:57:33;2.70;;;0.80;;
19219;SDS011;9744;49.364;7.484;2022-07-17T13:00:00;1.95;;;0.70;;
19219;SDS011;9744;49.364;7.484;2022-07-17T13:02:28;1.75;;;0.77;;
19219;SDS011;9744;49.364;7.484;2022-07-17T13:04:55;1.42;;;0.50;;
19219;SDS011;9744;49.364;7.484;2022-07-17T13:07:23;2.13;;;0.50;;
19219;SDS011;9744;49.364;7.484;2022-07-17T13:09:51;3.70;;;0.70;;
19219;SDS011;9744;49.364;7.484;2022-07-17T13:12:18;1.17;;;0.60;;
19219;SDS011;9744;49.364;7.484;2022-07-17T13:14:45;6.25;;;0.88;;
19219;SDS011;9744;49.364;7.484;2022-07-17T13:17:13;2.55;;;0.68;;
19219;SDS011;9744;49.364;7.484;2022-07-17T13:19:40;0.77;;;0.50;;
19219;SDS011;9744;49.364;7.484;2022-07-17T13:22:08;0.70;;;0.52;;
19219;SDS011;9744;49.364;7.484;2022-07-17T13:24:36;1.65;;;0.77;;
19219;SDS011;9744;49.364;7.484;2022-07-17T13:27:04;0.57;;;0.50;;
19219;SDS011;9744;49.364;7.484;2022-07-17T13:29:31;0.47;;;0.40;;
19219;SDS011;9744;49.364;7.484;2022-07-17T13:31:58;1.10;;;0.60;;
19219;SDS011;9744;49.364;7.484;2022-07-17T13:34:25;2.42;;;0.50;;
19219;SDS011;9744;49.364;7.484;2022-07-17T13:36:52;1.95;;;0.93;;
19219;SDS011;9744;49.364;7.484;2022-07-17T13:39:20;2.53;;;2.33;;
19219;SDS011;9744;49.364;7.484;2022-07-17T13:41:49;3.75;;;1.20;;
19219;SDS011;9744;49.364;7.484;2022-07-17T13:44:16;2.28;;;1.50;;
19219;SDS011;9744;49.364;7.484;2022-07-17T13:46:43;2.03;;;1.20;;
19219;SDS011;9744;49.364;7.484;2022-07-17T13:49:10;3.15;;;1.33;;
19219;SDS011;9744;49.364;7.484;2022-07-17T13:51:38;2.35;;;1.10;;
19219;SDS011;9744;49.364;7.484;2022-07-17T13:54:05;3.33;;;0.75;;
19219;SDS011;9744;49.364;7.484;2022-07-17T13:56:33;3.88;;;1.23;;
19219;SDS011;9744;49.364;7.484;2022-07-17T13:59:01;1.38;;;0.98;;
19219;SDS011;9744;49.364;7.484;2022-07-17T14:01:29;1.48;;;0.85;;
19219;SDS011;9744;49.364;7.484;2022-07-17T14:03:56;0.50;;;0.50;;
19219;SDS011;9744;49.364;7.484;2022-07-17T14:06:23;2.38;;;0.65;;
19219;SDS011;9744;49.364;7.484;2022-07-17T14:08:51;1.40;;;0.65;;
19219;SDS011;9744;49.364;7.484;2022-07-17T14:11:18;1.42;;;0.50;;
19219;SDS011;9744;49.364;7.484;2022-07-17T14:13:45;3.10;;;0.88;;
19219;SDS011;9744;49.364;7.484;2022-07-17T14:16:14;1.73;;;0.82;;
19219;SDS011;9744;49.364;7.484;2022-07-17T14:18:41;1.08;;;0.70;;
19219;SDS011;9744;49.364;7.484;2022-07-17T14:21:23;3.42;;;0.40;;
19219;SDS011;9744;49.364;7.484;2022-07-17T14:23:50;2.63;;;0.60;;
19219;SDS011;9744;49.364;7.484;2022-07-17T14:26:17;2.70;;;0.80;;
19219;SDS011;9744;49.364;7.484;2022-07-17T14:28:45;0.70;;;0.38;;
19219;SDS011;9744;49.364;7.484;2022-07-17T14:31:13;1.23;;;0.50;;
19219;SDS011;9744;49.364;7.484;2022-07-17T14:33:41;3.38;;;0.50;;
19219;SDS011;9744;49.364;7.484;2022-07-17T14:36:09;0.55;;;0.47;;
19219;SDS011;9744;49.364;7.484;2022-07-17T14:38:36;2.33;;;0.80;;
19219;SDS011;9744;49.364;7.484;2022-07-17T14:41:03;2.03;;;0.50;;
19219;SDS011;9744;49.364;7.484;2022-07-17T14:43:31;1.23;;;0.90;;
19219;SDS011;9744;49.364;7.484;2022-07-17T14:45:59;0.85;;;0.60;;
19219;SDS011;9744;49.364;7.484;2022-07-17T14:48:27;1.05;;;0.50;;
19219;SDS011;9744;49.364;7.484;2022-07-17T14:50:54;4.40;;;0.57;;
19219;SDS011;9744;49.364;7.484;2022-07-17T14:53:22;2.97;;;0.55;;
19219;SDS011;9744;49.364;7.484;2022-07-17T14:55:49;2.33;;;0.55;;
19219;SDS011;9744;49.364;7.484;2022-07-17T14:58:16;3.63;;;0.60;;
19219;SDS011;9744;49.364;7.484;2022-07-17T15:00:43;2.40;;;0.68;;
19219;SDS011;9744;49.364;7.484;2022-07-17T15:03:10;2.05;;;0.40;;
19219;SDS011;9744;49.364;7.484;2022-07-17T15:05:39;2.13;;;0.57;;